الصفحة الرئيسية
METAR-TAF:

METAR-TAF

مطار :

مطار ليوبولد سيدار سنغور الدولي

دكار, السنغال

دائرة عرض: 14-44N, خط طول: 017-30W, ارتفاع: 27 متر

مراقبة الطقس الحالي

تاريخ ووقت الإصدار 1ساعة و 21 دقيقة قبل الساعة 03:00UTC
ريح 6 عقدة من الشمال/الشمال الغربي
درجة الحرارة 26°درجة مئوية
الرطوبة 89%
ضغط 1010 hPa
الرؤية: 8000 متر
غيوم مفككة على ارتفاع 1300 قدم

METAR: GOOY 240300Z 34006KT 8000 BKN013 26/24 Q1010

زمن: 04:21 (04:21 UTC)

توقعات

تاريخ ووقت الإصدار 4ساعات و 51 دقيقة قبل الساعة 23:30UTC
التوقعات صالحة من24 الساعة 00 UTC إلى 25 الساعة 06 UTC
ريح 10 عقدة من الشمال الغربي
الرؤية 10 كم أو أكثر
غيوم متفرقة على ارتفاع 1300 قدم

TAF: GOOY 232330Z 2400/2506 32010KT 9999 SCT013

أرصاد الطقس والتوقعات من أكثر من 4000 مطار (تقارير الطقس للمطار METAR والتنبؤ بالطقس بالمطارTAF).

المحطات المتاحة هي النقط الصفراء والحمراء على الخريطة.

حرك المؤشر فوق النقطة لمعرفة اسم المحطة.

ثم انقر لمعرفة أرصاد وتوقعات الطقس.

لتغيير الخارطة: اضغط على الأزرار الخضراء مع رمز الصليب الأسود للتكبير. على الزر الأخضر مع شرطة للتصغير، أو على الأسهم الخضراء للخرائط المجاورة.


METAR-TAF: